createdAt,value
2019-04-22T00:00:36.218Z,72.10
2019-04-22T00:06:01.093Z,72.20
2019-04-22T00:11:19.613Z,72.10
2019-04-22T00:16:27.912Z,72.10
2019-04-22T00:21:31.986Z,72.20
2019-04-22T00:26:45.632Z,72.10
2019-04-22T00:31:54.696Z,72.40
2019-04-22T00:37:03.831Z,72.90
2019-04-22T00:42:08.009Z,73.70
2019-04-22T00:47:23.386Z,73.30
2019-04-22T00:52:33.833Z,73.30
2019-04-22T00:57:44.309Z,73.00
2019-04-22T01:02:49.665Z,73.10
2019-04-22T01:07:58.184Z,72.80
2019-04-22T01:13:05.971Z,73.30
2019-04-22T01:18:11.754Z,74.10
2019-04-22T01:23:26.795Z,74.60
2019-04-22T01:28:23.964Z,74.40
2019-04-22T01:33:25.955Z,75.70
2019-04-22T01:38:51.197Z,76.10
2019-04-22T01:44:15.842Z,78.00
2019-04-22T01:49:19.307Z,79.20
2019-04-22T01:54:29.744Z,79.50
2019-04-22T01:59:19.769Z,81.30
2019-04-22T02:09:51.949Z,82.90
2019-04-22T02:15:00.777Z,83.70
2019-04-22T02:20:11.967Z,84.10
2019-04-22T02:25:18.232Z,85.60
2019-04-22T02:30:30.399Z,85.80
2019-04-22T02:35:52.143Z,87.20
2019-04-22T02:41:09.117Z,88.50
2019-04-22T02:46:13.508Z,88.50
2019-04-22T03:01:30.076Z,88.20
2019-04-22T03:06:34.903Z,87.30
2019-04-22T03:21:54.557Z,89.50
2019-04-22T03:27:01.037Z,89.10
2019-04-22T03:32:39.475Z,90.40
2019-04-22T03:37:32.222Z,91.80
2019-04-22T03:42:29.500Z,91.70
2019-04-22T03:47:47.841Z,92.30
2019-04-22T03:52:50.393Z,94.00
2019-04-22T04:03:09.613Z,94.50
2019-04-22T04:08:18.400Z,93.10
2019-04-22T04:13:30.384Z,91.80
2019-04-22T04:18:29.570Z,92.90
2019-04-22T04:23:55.513Z,91.90
2019-04-22T04:29:21.386Z,92.70
2019-04-22T04:33:54.221Z,93.70
2019-04-22T04:39:10.964Z,93.80
2019-04-22T04:49:24.187Z,92.00
2019-04-22T04:54:35.938Z,91.00
2019-04-22T05:00:00.073Z,90.50
2019-04-22T05:04:56.751Z,91.00
2019-04-22T05:10:00.604Z,91.10
2019-04-22T05:20:33.736Z,90.00
2019-04-22T05:25:19.067Z,91.10
2019-04-22T05:30:26.865Z,91.20
2019-04-22T05:35:30.870Z,90.70
2019-04-22T05:40:34.667Z,90.80
2019-04-22T05:45:51.360Z,90.10
2019-04-22T05:51:03.737Z,89.30
2019-04-22T05:56:23.787Z,89.80
2019-04-22T06:01:39.027Z,87.70
2019-04-22T06:06:37.203Z,86.50
2019-04-22T06:11:36.060Z,85.30
2019-04-22T06:16:57.214Z,84.90
2019-04-22T06:22:17.513Z,84.20
2019-04-22T06:27:26.744Z,82.70
2019-04-22T06:37:37.969Z,82.20
2019-04-22T06:42:52.679Z,80.50
2019-04-22T06:53:05.810Z,81.10
2019-04-22T06:58:15.242Z,80.00
2019-04-22T07:13:43.042Z,79.50
2019-04-22T07:18:48.664Z,79.40
2019-04-22T07:24:16.267Z,79.10
2019-04-22T07:29:06.135Z,82.70
2019-04-22T07:39:23.122Z,80.50
2019-04-22T07:44:31.217Z,79.90
2019-04-22T07:49:41.169Z,78.30
2019-04-22T07:54:47.968Z,78.70
2019-04-22T07:59:57.177Z,78.90
2019-04-22T08:10:14.365Z,77.00
2019-04-22T08:15:19.995Z,77.00
2019-04-22T08:20:30.778Z,77.60
2019-04-22T08:25:38.797Z,79.40
2019-04-22T08:30:47.620Z,84.90
2019-04-22T08:36:07.235Z,85.10
2019-04-22T08:41:23.009Z,87.20
2019-04-22T08:46:31.691Z,86.40
2019-04-22T08:56:37.208Z,85.10
2019-04-22T09:01:45.298Z,86.00
2019-04-22T09:12:12.651Z,79.40
2019-04-22T09:17:18.280Z,77.00
2019-04-22T09:22:21.966Z,77.30
2019-04-22T09:27:40.023Z,77.80
2019-04-22T09:32:44.772Z,77.20
2019-04-22T09:38:01.689Z,76.80
2019-04-22T09:43:17.190Z,77.70
2019-04-22T09:48:18.113Z,77.40
2019-04-22T09:53:22.238Z,74.50
2019-04-22T09:58:31.616Z,74.90
2019-04-22T10:03:36.802Z,74.90
2019-04-22T10:09:10.237Z,74.60
2019-04-22T10:19:04.619Z,68.80
2019-04-22T10:24:16.709Z,68.60
2019-04-22T10:29:41.974Z,67.30
2019-04-22T10:34:16.690Z,67.80
2019-04-22T10:39:18.138Z,65.30
2019-04-22T10:44:26.879Z,65.50
2019-04-22T10:49:36.134Z,65.10
2019-04-22T10:55:03.367Z,65.60
2019-04-22T11:00:11.382Z,64.70
2019-04-22T11:05:18.056Z,64.10
2019-04-22T11:10:39.498Z,63.80
2019-04-22T11:15:34.775Z,64.10
2019-04-22T11:20:41.902Z,63.10
2019-04-22T11:25:50.105Z,63.90
2019-04-22T11:30:56.444Z,62.20
2019-04-22T11:36:03.743Z,59.20
2019-04-22T11:41:10.497Z,58.40
2019-04-22T11:46:17.757Z,57.50
2019-04-22T11:51:24.355Z,57.20
2019-04-22T11:56:31.780Z,57.80
2019-04-22T12:01:39.525Z,58.30
2019-04-22T12:06:46.973Z,59.70
2019-04-22T12:11:55.948Z,59.20
2019-04-22T12:17:05.738Z,59.40
2019-04-22T12:22:13.311Z,57.90
2019-04-22T12:27:24.023Z,55.90
2019-04-22T12:32:29.787Z,55.30
2019-04-22T12:37:47.142Z,55.30
2019-04-22T12:42:45.340Z,54.60
2019-04-22T12:47:53.859Z,54.00
2019-04-22T12:53:08.798Z,55.40
2019-04-22T12:58:11.882Z,54.10
2019-04-22T13:03:18.310Z,53.70
2019-04-22T13:08:27.623Z,53.00
2019-04-22T13:13:36.749Z,52.90
2019-04-22T13:18:50.240Z,54.20
2019-04-22T13:23:53.191Z,53.80
2019-04-22T13:28:59.403Z,55.00
2019-04-22T13:34:13.262Z,56.60
2019-04-22T13:39:14.703Z,57.10
2019-04-22T13:44:28.659Z,57.50
2019-04-22T13:50:17.813Z,58.30
2019-04-22T13:55:21.309Z,57.80
2019-04-22T14:00:00.159Z,58.90
2019-04-22T14:05:08.531Z,57.50
2019-04-22T14:10:16.494Z,57.70
2019-04-22T14:15:24.329Z,58.80
2019-04-22T14:20:32.712Z,57.60
2019-04-22T14:25:40.878Z,58.50
2019-04-22T14:30:50.496Z,58.70
2019-04-22T14:36:00.553Z,59.50
2019-04-22T14:41:08.736Z,60.40
2019-04-22T14:46:49.227Z,60.60
2019-04-22T14:51:53.452Z,58.50
2019-04-22T14:56:40.410Z,58.30
2019-04-22T15:01:47.558Z,58.80
2019-04-22T15:06:54.837Z,57.20
2019-04-22T15:12:11.057Z,55.90
2019-04-22T15:17:27.166Z,55.60
2019-04-22T15:22:34.678Z,57.50
2019-04-22T15:27:41.582Z,60.10
2019-04-22T15:32:49.113Z,59.60
2019-04-22T15:37:57.282Z,58.60
2019-04-22T15:43:04.746Z,58.00
2019-04-22T15:48:11.769Z,58.80
2019-04-22T15:53:18.117Z,59.70
2019-04-22T15:58:30.181Z,57.20
2019-04-22T16:03:50.228Z,58.10
2019-04-22T16:09:02.522Z,56.50
2019-04-22T16:14:10.550Z,54.40
2019-04-22T16:19:23.220Z,52.80
2019-04-22T16:24:54.121Z,53.60
2019-04-22T16:30:03.175Z,53.50
2019-04-22T16:35:10.587Z,54.80
2019-04-22T16:40:18.677Z,56.90
2019-04-22T16:45:25.514Z,57.80
2019-04-22T16:50:35.028Z,57.60
2019-04-22T16:55:42.325Z,57.20
2019-04-22T17:00:50.025Z,57.30
2019-04-22T17:06:26.007Z,58.20
2019-04-22T17:11:33.995Z,58.90
2019-04-22T17:16:42.008Z,61.10
2019-04-22T17:21:49.963Z,62.30
2019-04-22T17:26:56.686Z,63.60
2019-04-22T17:32:10.154Z,63.70
2019-04-22T17:37:19.259Z,64.00
2019-04-22T17:42:42.361Z,64.30
2019-04-22T17:48:12.869Z,64.60
2019-04-22T17:53:26.163Z,64.50
2019-04-22T17:58:36.015Z,65.60
2019-04-22T18:03:28.534Z,65.60
2019-04-22T18:08:48.622Z,66.20
2019-04-22T18:14:01.718Z,66.80
2019-04-22T18:19:04.194Z,67.80
2019-04-22T18:24:04.901Z,68.40
2019-04-22T18:29:21.897Z,69.20
2019-04-22T18:34:25.517Z,68.60
2019-04-22T18:39:40.822Z,69.50
2019-04-22T18:44:51.718Z,69.50
2019-04-22T18:49:55.056Z,69.30
2019-04-22T18:55:16.398Z,69.40
2019-04-22T19:00:16.084Z,70.80
2019-04-22T19:05:39.971Z,72.00
2019-04-22T19:11:00.716Z,73.10
2019-04-22T19:16:19.355Z,73.50
2019-04-22T19:21:16.181Z,73.10
2019-04-22T19:26:43.646Z,73.30
2019-04-22T19:31:43.789Z,73.60
2019-04-22T19:36:51.870Z,73.70
2019-04-22T19:42:00.895Z,74.10
2019-04-22T19:47:25.153Z,74.20
2019-04-22T19:52:22.391Z,74.30
2019-04-22T19:57:22.518Z,75.10
2019-04-22T20:02:42.335Z,75.40
2019-04-22T20:07:48.815Z,75.20
2019-04-22T20:12:55.777Z,75.20
2019-04-22T20:23:16.157Z,74.80
2019-04-22T20:28:29.038Z,74.90
2019-04-22T20:33:43.109Z,75.00
2019-04-22T20:38:40.297Z,74.90
2019-04-22T20:43:54.674Z,75.00
2019-04-22T20:49:09.602Z,75.20
2019-04-22T20:54:08.868Z,75.30
2019-04-22T20:59:14.947Z,75.30
2019-04-22T21:04:09.046Z,75.70
2019-04-22T21:09:35.527Z,75.80
2019-04-22T21:14:44.193Z,76.00
2019-04-22T21:19:54.770Z,76.30
2019-04-22T21:24:52.267Z,76.80
2019-04-22T21:29:58.663Z,76.70
2019-04-22T21:35:33.268Z,76.40
2019-04-22T21:40:32.290Z,76.40
2019-04-22T21:45:31.031Z,76.40
2019-04-22T21:50:58.182Z,76.20
2019-04-22T21:56:13.036Z,75.90
2019-04-22T22:01:33.552Z,76.10
2019-04-22T22:06:23.544Z,76.10
2019-04-22T22:11:35.959Z,75.80
2019-04-22T22:16:41.055Z,76.00
2019-04-22T22:22:02.392Z,76.10
2019-04-22T22:27:01.523Z,76.10
2019-04-22T22:32:14.258Z,76.40
2019-04-22T22:37:11.724Z,76.30
2019-04-22T22:42:22.233Z,76.50
2019-04-22T22:47:40.964Z,76.60
2019-04-22T22:53:11.600Z,77.10
2019-04-22T22:58:08.225Z,77.10
2019-04-22T23:08:20.033Z,76.90
2019-04-22T23:13:31.467Z,77.00
2019-04-22T23:18:16.214Z,77.20
2019-04-22T23:23:43.977Z,77.10
2019-04-22T23:28:53.504Z,76.50
2019-04-22T23:34:09.210Z,76.70
2019-04-22T23:39:17.105Z,76.80
2019-04-22T23:44:25.337Z,76.70
2019-04-22T23:49:25.043Z,76.50
2019-04-22T23:54:53.692Z,76.80
2019-04-22T23:59:57.101Z,76.70
